sensor_id;sensor_type;location;lat;lon;timestamp;P1;P2;P0
40371;PMS5003;28564;53.346;-6.554;2024-01-25T00:01:34;11;10;
40371;PMS5003;28564;53.346;-6.554;2024-01-25T00:04:01;12;7;
40371;PMS5003;28564;53.346;-6.554;2024-01-25T00:06:29;9;7;
40371;PMS5003;28564;53.346;-6.554;2024-01-25T00:08:56;14;7;
40371;PMS5003;28564;53.346;-6.554;2024-01-25T00:11:24;7;7;
40371;PMS5003;28564;53.346;-6.554;2024-01-25T00:13:51;10;5;
40371;PMS5003;28564;53.346;-6.554;2024-01-25T00:16:18;19;7;
40371;PMS5003;28564;53.346;-6.554;2024-01-25T00:18:46;6;6;
40371;PMS5003;28564;53.346;-6.554;2024-01-25T00:21:13;4;4;
40371;PMS5003;28564;53.346;-6.554;2024-01-25T00:23:40;4;4;
40371;PMS5003;28564;53.346;-6.554;2024-01-25T00:26:07;3;3;
40371;PMS5003;28564;53.346;-6.554;2024-01-25T00:28:35;5;2;
40371;PMS5003;28564;53.346;-6.554;2024-01-25T00:31:02;5;4;
40371;PMS5003;28564;53.346;-6.554;2024-01-25T00:33:29;4;4;
40371;PMS5003;28564;53.346;-6.554;2024-01-25T00:35:57;3;3;
40371;PMS5003;28564;53.346;-6.554;2024-01-25T00:38:25;3;3;
40371;PMS5003;28564;53.346;-6.554;2024-01-25T00:40:53;6;3;
40371;PMS5003;28564;53.346;-6.554;2024-01-25T00:43:21;5;3;
40371;PMS5003;28564;53.346;-6.554;2024-01-25T00:45:50;3;3;
40371;PMS5003;28564;53.346;-6.554;2024-01-25T00:48:18;3;3;
40371;PMS5003;28564;53.346;-6.554;2024-01-25T00:50:46;5;4;
40371;PMS5003;28564;53.346;-6.554;2024-01-25T00:53:14;6;3;
40371;PMS5003;28564;53.346;-6.554;2024-01-25T00:55:42;11;5;
40371;PMS5003;28564;53.346;-6.554;2024-01-25T00:58:10;2;2;
40371;PMS5003;28564;53.346;-6.554;2024-01-25T01:00:39;4;2;
40371;PMS5003;28564;53.346;-6.554;2024-01-25T01:03:07;2;2;
40371;PMS5003;28564;53.346;-6.554;2024-01-25T01:05:35;8;3;
40371;PMS5003;28564;53.346;-6.554;2024-01-25T01:08:03;2;2;
40371;PMS5003;28564;53.346;-6.554;2024-01-25T01:10:31;4;3;
40371;PMS5003;28564;53.346;-6.554;2024-01-25T01:12:58;4;1;
40371;PMS5003;28564;53.346;-6.554;2024-01-25T01:15:25;4;3;
40371;PMS5003;28564;53.346;-6.554;2024-01-25T01:17:53;7;3;
40371;PMS5003;28564;53.346;-6.554;2024-01-25T01:20:25;4;4;
40371;PMS5003;28564;53.346;-6.554;2024-01-25T01:22:52;4;3;
40371;PMS5003;28564;53.346;-6.554;2024-01-25T01:25:20;3;2;
40371;PMS5003;28564;53.346;-6.554;2024-01-25T01:27:47;5;5;
40371;PMS5003;28564;53.346;-6.554;2024-01-25T01:30:14;2;2;
40371;PMS5003;28564;53.346;-6.554;2024-01-25T01:32:42;2;2;
40371;PMS5003;28564;53.346;-6.554;2024-01-25T01:35:09;3;2;
40371;PMS5003;28564;53.346;-6.554;2024-01-25T01:37:36;6;2;
40371;PMS5003;28564;53.346;-6.554;2024-01-25T01:40:03;7;5;
40371;PMS5003;28564;53.346;-6.554;2024-01-25T01:42:31;7;4;
40371;PMS5003;28564;53.346;-6.554;2024-01-25T01:44:59;4;3;
40371;PMS5003;28564;53.346;-6.554;2024-01-25T01:47:27;4;2;
40371;PMS5003;28564;53.346;-6.554;2024-01-25T01:49:55;5;3;
40371;PMS5003;28564;53.346;-6.554;2024-01-25T01:52:22;3;2;
40371;PMS5003;28564;53.346;-6.554;2024-01-25T01:54:50;2;2;
40371;PMS5003;28564;53.346;-6.554;2024-01-25T01:57:18;5;2;
40371;PMS5003;28564;53.346;-6.554;2024-01-25T01:59:45;5;4;
40371;PMS5003;28564;53.346;-6.554;2024-01-25T02:02:13;7;3;
40371;PMS5003;28564;53.346;-6.554;2024-01-25T02:04:40;10;4;
40371;PMS5003;28564;53.346;-6.554;2024-01-25T02:07:09;3;2;
40371;PMS5003;28564;53.346;-6.554;2024-01-25T02:09:37;4;2;
40371;PMS5003;28564;53.346;-6.554;2024-01-25T02:12:05;4;2;
40371;PMS5003;28564;53.346;-6.554;2024-01-25T02:14:33;6;3;
40371;PMS5003;28564;53.346;-6.554;2024-01-25T02:17:00;5;4;
40371;PMS5003;28564;53.346;-6.554;2024-01-25T02:19:27;6;2;
40371;PMS5003;28564;53.346;-6.554;2024-01-25T02:21:55;3;2;
40371;PMS5003;28564;53.346;-6.554;2024-01-25T02:24:23;3;2;
40371;PMS5003;28564;53.346;-6.554;2024-01-25T02:26:51;3;3;
40371;PMS5003;28564;53.346;-6.554;2024-01-25T02:29:18;3;2;
40371;PMS5003;28564;53.346;-6.554;2024-01-25T02:31:45;4;1;
40371;PMS5003;28564;53.346;-6.554;2024-01-25T02:34:12;5;2;
40371;PMS5003;28564;53.346;-6.554;2024-01-25T02:36:40;2;2;
40371;PMS5003;28564;53.346;-6.554;2024-01-25T02:39:07;4;3;
40371;PMS5003;28564;53.346;-6.554;2024-01-25T02:41:35;8;3;
40371;PMS5003;28564;53.346;-6.554;2024-01-25T02:44:01;8;3;
40371;PMS5003;28564;53.346;-6.554;2024-01-25T02:46:29;4;1;
40371;PMS5003;28564;53.346;-6.554;2024-01-25T02:48:56;6;3;
40371;PMS5003;28564;53.346;-6.554;2024-01-25T02:51:23;4;3;
40371;PMS5003;28564;53.346;-6.554;2024-01-25T02:53:51;5;3;
40371;PMS5003;28564;53.346;-6.554;2024-01-25T02:56:18;9;6;
40371;PMS5003;28564;53.346;-6.554;2024-01-25T02:58:45;2;2;
40371;PMS5003;28564;53.346;-6.554;2024-01-25T03:01:13;4;2;
40371;PMS5003;28564;53.346;-6.554;2024-01-25T03:03:41;2;2;
40371;PMS5003;28564;53.346;-6.554;2024-01-25T03:06:08;11;4;
40371;PMS5003;28564;53.346;-6.554;2024-01-25T03:08:36;2;2;
40371;PMS5003;28564;53.346;-6.554;2024-01-25T03:11:03;5;3;
40371;PMS5003;28564;53.346;-6.554;2024-01-25T03:13:30;1;1;
40371;PMS5003;28564;53.346;-6.554;2024-01-25T03:15:58;5;1;
40371;PMS5003;28564;53.346;-6.554;2024-01-25T03:18:25;6;1;
40371;PMS5003;28564;53.346;-6.554;2024-01-25T03:20:52;0;0;
40371;PMS5003;28564;53.346;-6.554;2024-01-25T03:23:19;1;0;
40371;PMS5003;28564;53.346;-6.554;2024-01-25T03:25:47;1;1;
40371;PMS5003;28564;53.346;-6.554;2024-01-25T03:28:14;1;0;
40371;PMS5003;28564;53.346;-6.554;2024-01-25T03:30:41;0;0;
40371;PMS5003;28564;53.346;-6.554;2024-01-25T03:33:08;0;0;
40371;PMS5003;28564;53.346;-6.554;2024-01-25T03:35:35;0;0;
40371;PMS5003;28564;53.346;-6.554;2024-01-25T03:38:03;0;0;
40371;PMS5003;28564;53.346;-6.554;2024-01-25T03:40:30;0;0;
40371;PMS5003;28564;53.346;-6.554;2024-01-25T03:42:57;0;0;
40371;PMS5003;28564;53.346;-6.554;2024-01-25T03:45:25;0;0;
40371;PMS5003;28564;53.346;-6.554;2024-01-25T03:47:51;0;0;
40371;PMS5003;28564;53.346;-6.554;2024-01-25T03:50:19;0;0;
40371;PMS5003;28564;53.346;-6.554;2024-01-25T03:52:46;0;0;
40371;PMS5003;28564;53.346;-6.554;2024-01-25T03:55:13;0;0;
40371;PMS5003;28564;53.346;-6.554;2024-01-25T03:57:40;0;0;
40371;PMS5003;28564;53.346;-6.554;2024-01-25T04:00:08;0;0;
40371;PMS5003;28564;53.346;-6.554;2024-01-25T04:02:36;0;0;
40371;PMS5003;28564;53.346;-6.554;2024-01-25T04:05:03;0;0;
40371;PMS5003;28564;53.346;-6.554;2024-01-25T04:07:31;0;0;
40371;PMS5003;28564;53.346;-6.554;2024-01-25T04:09:58;0;0;
40371;PMS5003;28564;53.346;-6.554;2024-01-25T04:12:26;0;0;
40371;PMS5003;28564;53.346;-6.554;2024-01-25T04:14:53;0;0;
40371;PMS5003;28564;53.346;-6.554;2024-01-25T04:17:20;0;0;
40371;PMS5003;28564;53.346;-6.554;2024-01-25T04:19:47;0;0;
40371;PMS5003;28564;53.346;-6.554;2024-01-25T04:22:14;0;0;
40371;PMS5003;28564;53.346;-6.554;2024-01-25T04:24:41;0;0;
40371;PMS5003;28564;53.346;-6.554;2024-01-25T04:27:09;0;0;
40371;PMS5003;28564;53.346;-6.554;2024-01-25T04:29:38;0;0;
40371;PMS5003;28564;53.346;-6.554;2024-01-25T04:32:05;0;0;
40371;PMS5003;28564;53.346;-6.554;2024-01-25T04:34:33;0;0;
40371;PMS5003;28564;53.346;-6.554;2024-01-25T04:37:02;0;0;
40371;PMS5003;28564;53.346;-6.554;2024-01-25T04:39:29;0;0;
40371;PMS5003;28564;53.346;-6.554;2024-01-25T04:41:56;0;0;
40371;PMS5003;28564;53.346;-6.554;2024-01-25T04:44:23;0;0;
40371;PMS5003;28564;53.346;-6.554;2024-01-25T04:46:50;0;0;
40371;PMS5003;28564;53.346;-6.554;2024-01-25T04:49:18;0;0;
40371;PMS5003;28564;53.346;-6.554;2024-01-25T04:51:45;0;0;
40371;PMS5003;28564;53.346;-6.554;2024-01-25T04:54:12;0;0;
40371;PMS5003;28564;53.346;-6.554;2024-01-25T04:56:39;0;0;
40371;PMS5003;28564;53.346;-6.554;2024-01-25T04:59:06;0;0;
40371;PMS5003;28564;53.346;-6.554;2024-01-25T05:01:34;0;0;
40371;PMS5003;28564;53.346;-6.554;2024-01-25T05:04:02;0;0;
40371;PMS5003;28564;53.346;-6.554;2024-01-25T05:06:29;0;0;
40371;PMS5003;28564;53.346;-6.554;2024-01-25T05:08:56;0;0;
40371;PMS5003;28564;53.346;-6.554;2024-01-25T05:11:23;0;0;
40371;PMS5003;28564;53.346;-6.554;2024-01-25T05:13:50;0;0;
40371;PMS5003;28564;53.346;-6.554;2024-01-25T05:16:18;0;0;
40371;PMS5003;28564;53.346;-6.554;2024-01-25T05:18:45;0;0;
40371;PMS5003;28564;53.346;-6.554;2024-01-25T05:21:12;0;0;
40371;PMS5003;28564;53.346;-6.554;2024-01-25T05:23:39;0;0;
40371;PMS5003;28564;53.346;-6.554;2024-01-25T05:26:06;2;0;
40371;PMS5003;28564;53.346;-6.554;2024-01-25T05:28:33;1;0;
40371;PMS5003;28564;53.346;-6.554;2024-01-25T05:31:01;0;0;
40371;PMS5003;28564;53.346;-6.554;2024-01-25T05:33:28;0;0;
40371;PMS5003;28564;53.346;-6.554;2024-01-25T05:35:55;3;0;
40371;PMS5003;28564;53.346;-6.554;2024-01-25T05:38:22;0;0;
40371;PMS5003;28564;53.346;-6.554;2024-01-25T05:40:49;0;0;
40371;PMS5003;28564;53.346;-6.554;2024-01-25T05:43:17;2;0;
40371;PMS5003;28564;53.346;-6.554;2024-01-25T05:45:44;0;0;
40371;PMS5003;28564;53.346;-6.554;2024-01-25T05:48:11;2;2;
40371;PMS5003;28564;53.346;-6.554;2024-01-25T05:50:38;4;1;
40371;PMS5003;28564;53.346;-6.554;2024-01-25T05:53:05;3;2;
40371;PMS5003;28564;53.346;-6.554;2024-01-25T05:55:33;1;1;
40371;PMS5003;28564;53.346;-6.554;2024-01-25T05:58:00;3;1;
40371;PMS5003;28564;53.346;-6.554;2024-01-25T06:00:27;2;0;
40371;PMS5003;28564;53.346;-6.554;2024-01-25T06:02:54;2;1;
40371;PMS5003;28564;53.346;-6.554;2024-01-25T06:05:21;2;1;
40371;PMS5003;28564;53.346;-6.554;2024-01-25T06:07:49;2;2;
40371;PMS5003;28564;53.346;-6.554;2024-01-25T06:10:16;2;0;
40371;PMS5003;28564;53.346;-6.554;2024-01-25T06:12:43;1;0;
40371;PMS5003;28564;53.346;-6.554;2024-01-25T06:15:10;0;0;
40371;PMS5003;28564;53.346;-6.554;2024-01-25T06:17:37;4;2;
40371;PMS5003;28564;53.346;-6.554;2024-01-25T06:20:05;3;1;
40371;PMS5003;28564;53.346;-6.554;2024-01-25T06:22:33;1;1;
40371;PMS5003;28564;53.346;-6.554;2024-01-25T06:25:00;1;0;
40371;PMS5003;28564;53.346;-6.554;2024-01-25T06:27:27;3;0;
40371;PMS5003;28564;53.346;-6.554;2024-01-25T06:29:54;0;0;
40371;PMS5003;28564;53.346;-6.554;2024-01-25T06:32:21;0;0;
40371;PMS5003;28564;53.346;-6.554;2024-01-25T06:34:48;7;1;
40371;PMS5003;28564;53.346;-6.554;2024-01-25T06:37:16;1;1;
40371;PMS5003;28564;53.346;-6.554;2024-01-25T06:39:44;3;1;
40371;PMS5003;28564;53.346;-6.554;2024-01-25T06:42:11;0;0;
40371;PMS5003;28564;53.346;-6.554;2024-01-25T06:44:38;2;0;
40371;PMS5003;28564;53.346;-6.554;2024-01-25T06:47:05;3;1;
40371;PMS5003;28564;53.346;-6.554;2024-01-25T06:49:32;0;0;
40371;PMS5003;28564;53.346;-6.554;2024-01-25T06:52:00;0;0;
40371;PMS5003;28564;53.346;-6.554;2024-01-25T06:54:27;1;0;
40371;PMS5003;28564;53.346;-6.554;2024-01-25T06:56:54;0;0;
40371;PMS5003;28564;53.346;-6.554;2024-01-25T06:59:21;0;0;
40371;PMS5003;28564;53.346;-6.554;2024-01-25T07:01:48;3;1;
40371;PMS5003;28564;53.346;-6.554;2024-01-25T07:04:15;1;1;
40371;PMS5003;28564;53.346;-6.554;2024-01-25T07:06:43;1;1;
40371;PMS5003;28564;53.346;-6.554;2024-01-25T07:09:10;1;1;
40371;PMS5003;28564;53.346;-6.554;2024-01-25T07:11:37;3;0;
40371;PMS5003;28564;53.346;-6.554;2024-01-25T07:14:04;2;2;
40371;PMS5003;28564;53.346;-6.554;2024-01-25T07:16:31;5;5;
40371;PMS5003;28564;53.346;-6.554;2024-01-25T07:18:59;10;8;
40371;PMS5003;28564;53.346;-6.554;2024-01-25T07:21:26;9;7;
40371;PMS5003;28564;53.346;-6.554;2024-01-25T07:23:53;8;8;
40371;PMS5003;28564;53.346;-6.554;2024-01-25T07:26:20;7;7;
40371;PMS5003;28564;53.346;-6.554;2024-01-25T07:28:48;9;9;
40371;PMS5003;28564;53.346;-6.554;2024-01-25T07:31:15;9;8;
40371;PMS5003;28564;53.346;-6.554;2024-01-25T07:33:42;10;10;
40371;PMS5003;28564;53.346;-6.554;2024-01-25T07:36:10;9;9;
40371;PMS5003;28564;53.346;-6.554;2024-01-25T07:38:37;9;9;
40371;PMS5003;28564;53.346;-6.554;2024-01-25T07:41:04;9;7;
40371;PMS5003;28564;53.346;-6.554;2024-01-25T07:43:31;8;6;
40371;PMS5003;28564;53.346;-6.554;2024-01-25T07:45:59;8;8;
40371;PMS5003;28564;53.346;-6.554;2024-01-25T07:48:26;8;8;
40371;PMS5003;28564;53.346;-6.554;2024-01-25T07:50:53;6;6;
40371;PMS5003;28564;53.346;-6.554;2024-01-25T07:56:31;6;6;
40371;PMS5003;28564;53.346;-6.554;2024-01-25T07:58:58;4;4;
40371;PMS5003;28564;53.346;-6.554;2024-01-25T08:01:26;6;6;
40371;PMS5003;28564;53.346;-6.554;2024-01-25T08:03:53;5;5;
40371;PMS5003;28564;53.346;-6.554;2024-01-25T08:06:20;6;6;
40371;PMS5003;28564;53.346;-6.554;2024-01-25T08:08:47;5;5;
40371;PMS5003;28564;53.346;-6.554;2024-01-25T08:11:15;5;5;
40371;PMS5003;28564;53.346;-6.554;2024-01-25T08:13:42;4;4;
40371;PMS5003;28564;53.346;-6.554;2024-01-25T08:16:09;4;4;
40371;PMS5003;28564;53.346;-6.554;2024-01-25T08:18:36;4;4;
40371;PMS5003;28564;53.346;-6.554;2024-01-25T08:21:04;4;4;
40371;PMS5003;28564;53.346;-6.554;2024-01-25T08:23:32;4;4;
40371;PMS5003;28564;53.346;-6.554;2024-01-25T08:25:59;6;6;
40371;PMS5003;28564;53.346;-6.554;2024-01-25T08:28:26;6;6;
40371;PMS5003;28564;53.346;-6.554;2024-01-25T08:30:53;6;6;
40371;PMS5003;28564;53.346;-6.554;2024-01-25T08:33:21;8;8;
40371;PMS5003;28564;53.346;-6.554;2024-01-25T08:35:48;7;7;
40371;PMS5003;28564;53.346;-6.554;2024-01-25T08:38:15;9;9;
40371;PMS5003;28564;53.346;-6.554;2024-01-25T08:40:43;7;7;
40371;PMS5003;28564;53.346;-6.554;2024-01-25T08:43:09;6;4;
40371;PMS5003;28564;53.346;-6.554;2024-01-25T08:45:42;4;3;
40371;PMS5003;28564;53.346;-6.554;2024-01-25T08:48:09;3;1;
40371;PMS5003;28564;53.346;-6.554;2024-01-25T08:50:36;3;2;
40371;PMS5003;28564;53.346;-6.554;2024-01-25T08:53:04;3;2;
40371;PMS5003;28564;53.346;-6.554;2024-01-25T08:55:31;2;1;
40371;PMS5003;28564;53.346;-6.554;2024-01-25T08:57:58;2;2;
40371;PMS5003;28564;53.346;-6.554;2024-01-25T09:00:25;6;4;
40371;PMS5003;28564;53.346;-6.554;2024-01-25T09:02:53;4;3;
40371;PMS5003;28564;53.346;-6.554;2024-01-25T09:05:20;3;3;
40371;PMS5003;28564;53.346;-6.554;2024-01-25T09:07:47;3;3;
40371;PMS5003;28564;53.346;-6.554;2024-01-25T09:10:14;4;4;
40371;PMS5003;28564;53.346;-6.554;2024-01-25T09:12:41;5;2;
40371;PMS5003;28564;53.346;-6.554;2024-01-25T09:15:09;3;1;
40371;PMS5003;28564;53.346;-6.554;2024-01-25T09:17:36;1;1;
40371;PMS5003;28564;53.346;-6.554;2024-01-25T09:20:04;0;0;
40371;PMS5003;28564;53.346;-6.554;2024-01-25T09:22:32;0;0;
40371;PMS5003;28564;53.346;-6.554;2024-01-25T09:25:00;1;1;
40371;PMS5003;28564;53.346;-6.554;2024-01-25T09:27:27;2;0;
40371;PMS5003;28564;53.346;-6.554;2024-01-25T09:29:54;0;0;
40371;PMS5003;28564;53.346;-6.554;2024-01-25T09:32:21;1;1;
40371;PMS5003;28564;53.346;-6.554;2024-01-25T09:34:48;2;1;
40371;PMS5003;28564;53.346;-6.554;2024-01-25T09:37:15;0;0;
40371;PMS5003;28564;53.346;-6.554;2024-01-25T09:39:43;0;0;
40371;PMS5003;28564;53.346;-6.554;2024-01-25T09:42:10;0;0;
40371;PMS5003;28564;53.346;-6.554;2024-01-25T09:44:38;1;1;
40371;PMS5003;28564;53.346;-6.554;2024-01-25T09:47:08;0;0;
40371;PMS5003;28564;53.346;-6.554;2024-01-25T09:49:36;0;0;
40371;PMS5003;28564;53.346;-6.554;2024-01-25T09:52:04;1;1;
40371;PMS5003;28564;53.346;-6.554;2024-01-25T09:54:32;0;0;
40371;PMS5003;28564;53.346;-6.554;2024-01-25T09:57:01;0;0;
40371;PMS5003;28564;53.346;-6.554;2024-01-25T09:59:32;2;1;
40371;PMS5003;28564;53.346;-6.554;2024-01-25T10:03:49;1;1;
40371;PMS5003;28564;53.346;-6.554;2024-01-25T10:06:16;5;2;
40371;PMS5003;28564;53.346;-6.554;2024-01-25T10:08:44;1;1;
40371;PMS5003;28564;53.346;-6.554;2024-01-25T10:11:11;3;1;
40371;PMS5003;28564;53.346;-6.554;2024-01-25T10:13:41;2;2;
40371;PMS5003;28564;53.346;-6.554;2024-01-25T10:16:10;2;2;
40371;PMS5003;28564;53.346;-6.554;2024-01-25T10:18:38;1;1;
40371;PMS5003;28564;53.346;-6.554;2024-01-25T10:21:07;1;1;
40371;PMS5003;28564;53.346;-6.554;2024-01-25T10:23:35;0;0;
40371;PMS5003;28564;53.346;-6.554;2024-01-25T10:26:03;1;1;
40371;PMS5003;28564;53.346;-6.554;2024-01-25T10:28:31;0;0;
40371;PMS5003;28564;53.346;-6.554;2024-01-25T10:30:59;1;0;
40371;PMS5003;28564;53.346;-6.554;2024-01-25T10:33:28;1;1;
40371;PMS5003;28564;53.346;-6.554;2024-01-25T10:35:55;3;1;
40371;PMS5003;28564;53.346;-6.554;2024-01-25T10:38:23;2;2;
40371;PMS5003;28564;53.346;-6.554;2024-01-25T10:40:52;0;0;
40371;PMS5003;28564;53.346;-6.554;2024-01-25T10:43:20;1;1;
40371;PMS5003;28564;53.346;-6.554;2024-01-25T10:45:47;2;0;
40371;PMS5003;28564;53.346;-6.554;2024-01-25T10:48:15;0;0;
40371;PMS5003;28564;53.346;-6.554;2024-01-25T10:50:42;3;0;
40371;PMS5003;28564;53.346;-6.554;2024-01-25T10:53:10;0;0;
40371;PMS5003;28564;53.346;-6.554;2024-01-25T10:55:38;0;0;
40371;PMS5003;28564;53.346;-6.554;2024-01-25T10:58:06;0;0;
40371;PMS5003;28564;53.346;-6.554;2024-01-25T11:00:34;2;0;
40371;PMS5003;28564;53.346;-6.554;2024-01-25T11:03:02;1;0;
40371;PMS5003;28564;53.346;-6.554;2024-01-25T11:05:32;3;3;
40371;PMS5003;28564;53.346;-6.554;2024-01-25T11:07:59;1;1;
40371;PMS5003;28564;53.346;-6.554;2024-01-25T11:10:28;0;0;
40371;PMS5003;28564;53.346;-6.554;2024-01-25T11:13:01;1;1;
40371;PMS5003;28564;53.346;-6.554;2024-01-25T11:15:30;0;0;
40371;PMS5003;28564;53.346;-6.554;2024-01-25T11:17:59;2;1;
40371;PMS5003;28564;53.346;-6.554;2024-01-25T11:20:28;3;1;
40371;PMS5003;28564;53.346;-6.554;2024-01-25T11:22:56;2;1;
40371;PMS5003;28564;53.346;-6.554;2024-01-25T11:25:24;1;1;
40371;PMS5003;28564;53.346;-6.554;2024-01-25T11:27:53;2;0;
40371;PMS5003;28564;53.346;-6.554;2024-01-25T11:30:20;0;0;
40371;PMS5003;28564;53.346;-6.554;2024-01-25T11:32:48;0;0;
40371;PMS5003;28564;53.346;-6.554;2024-01-25T11:35:16;0;0;
40371;PMS5003;28564;53.346;-6.554;2024-01-25T11:37:45;1;1;
40371;PMS5003;28564;53.346;-6.554;2024-01-25T11:40:13;2;0;
40371;PMS5003;28564;53.346;-6.554;2024-01-25T11:42:41;0;0;
40371;PMS5003;28564;53.346;-6.554;2024-01-25T11:45:10;0;0;
40371;PMS5003;28564;53.346;-6.554;2024-01-25T11:47:38;0;0;
40371;PMS5003;28564;53.346;-6.554;2024-01-25T11:50:07;3;0;
40371;PMS5003;28564;53.346;-6.554;2024-01-25T11:52:36;2;0;
40371;PMS5003;28564;53.346;-6.554;2024-01-25T11:55:05;0;0;
40371;PMS5003;28564;53.346;-6.554;2024-01-25T11:57:34;0;0;
40371;PMS5003;28564;53.346;-6.554;2024-01-25T12:00:03;0;0;
40371;PMS5003;28564;53.346;-6.554;2024-01-25T12:02:32;0;0;
40371;PMS5003;28564;53.346;-6.554;2024-01-25T12:05:05;0;0;
40371;PMS5003;28564;53.346;-6.554;2024-01-25T12:07:35;0;0;
40371;PMS5003;28564;53.346;-6.554;2024-01-25T12:10:03;1;1;
40371;PMS5003;28564;53.346;-6.554;2024-01-25T12:12:31;0;0;
40371;PMS5003;28564;53.346;-6.554;2024-01-25T12:14:59;1;1;
40371;PMS5003;28564;53.346;-6.554;2024-01-25T12:17:26;0;0;
40371;PMS5003;28564;53.346;-6.554;2024-01-25T12:19:54;0;0;
40371;PMS5003;28564;53.346;-6.554;2024-01-25T12:22:22;1;1;
40371;PMS5003;28564;53.346;-6.554;2024-01-25T12:24:50;2;0;
40371;PMS5003;28564;53.346;-6.554;2024-01-25T12:27:20;0;0;
40371;PMS5003;28564;53.346;-6.554;2024-01-25T12:29:47;1;1;
40371;PMS5003;28564;53.346;-6.554;2024-01-25T12:32:14;1;1;
40371;PMS5003;28564;53.346;-6.554;2024-01-25T12:34:42;2;1;
40371;PMS5003;28564;53.346;-6.554;2024-01-25T12:37:18;2;2;
40371;PMS5003;28564;53.346;-6.554;2024-01-25T12:39:46;2;2;
40371;PMS5003;28564;53.346;-6.554;2024-01-25T12:42:13;0;0;
40371;PMS5003;28564;53.346;-6.554;2024-01-25T12:44:40;0;0;
40371;PMS5003;28564;53.346;-6.554;2024-01-25T12:47:07;3;3;
40371;PMS5003;28564;53.346;-6.554;2024-01-25T12:49:34;1;1;
40371;PMS5003;28564;53.346;-6.554;2024-01-25T12:52:01;1;1;
40371;PMS5003;28564;53.346;-6.554;2024-01-25T12:54:29;1;1;
40371;PMS5003;28564;53.346;-6.554;2024-01-25T12:56:56;0;0;
40371;PMS5003;28564;53.346;-6.554;2024-01-25T12:59:24;1;0;
40371;PMS5003;28564;53.346;-6.554;2024-01-25T13:01:52;0;0;
40371;PMS5003;28564;53.346;-6.554;2024-01-25T13:04:20;0;0;
40371;PMS5003;28564;53.346;-6.554;2024-01-25T13:06:47;0;0;
40371;PMS5003;28564;53.346;-6.554;2024-01-25T13:09:14;0;0;
40371;PMS5003;28564;53.346;-6.554;2024-01-25T13:11:41;0;0;
40371;PMS5003;28564;53.346;-6.554;2024-01-25T13:14:08;0;0;
40371;PMS5003;28564;53.346;-6.554;2024-01-25T13:16:35;2;0;
40371;PMS5003;28564;53.346;-6.554;2024-01-25T13:19:02;0;0;
40371;PMS5003;28564;53.346;-6.554;2024-01-25T13:21:29;0;0;
40371;PMS5003;28564;53.346;-6.554;2024-01-25T13:23:58;0;0;
40371;PMS5003;28564;53.346;-6.554;2024-01-25T13:26:26;0;0;
40371;PMS5003;28564;53.346;-6.554;2024-01-25T13:28:53;0;0;
40371;PMS5003;28564;53.346;-6.554;2024-01-25T13:31:20;0;0;
40371;PMS5003;28564;53.346;-6.554;2024-01-25T13:33:47;0;0;
40371;PMS5003;28564;53.346;-6.554;2024-01-25T13:36:14;0;0;
40371;PMS5003;28564;53.346;-6.554;2024-01-25T13:38:42;1;0;
40371;PMS5003;28564;53.346;-6.554;2024-01-25T13:41:09;0;0;
40371;PMS5003;28564;53.346;-6.554;2024-01-25T13:43:36;0;0;
40371;PMS5003;28564;53.346;-6.554;2024-01-25T13:46:03;0;0;
40371;PMS5003;28564;53.346;-6.554;2024-01-25T13:48:30;0;0;
40371;PMS5003;28564;53.346;-6.554;2024-01-25T13:50:57;1;0;
40371;PMS5003;28564;53.346;-6.554;2024-01-25T13:53:25;0;0;
40371;PMS5003;28564;53.346;-6.554;2024-01-25T13:55:52;0;0;
40371;PMS5003;28564;53.346;-6.554;2024-01-25T13:58:19;0;0;
40371;PMS5003;28564;53.346;-6.554;2024-01-25T14:00:46;0;0;
40371;PMS5003;28564;53.346;-6.554;2024-01-25T14:03:14;0;0;
40371;PMS5003;28564;53.346;-6.554;2024-01-25T14:05:41;0;0;
40371;PMS5003;28564;53.346;-6.554;2024-01-25T14:08:08;0;0;
40371;PMS5003;28564;53.346;-6.554;2024-01-25T14:10:36;0;0;
40371;PMS5003;28564;53.346;-6.554;2024-01-25T14:13:04;1;1;
40371;PMS5003;28564;53.346;-6.554;2024-01-25T14:15:31;2;0;
40371;PMS5003;28564;53.346;-6.554;2024-01-25T14:17:59;1;1;
40371;PMS5003;28564;53.346;-6.554;2024-01-25T14:20:27;0;0;
40371;PMS5003;28564;53.346;-6.554;2024-01-25T14:22:54;0;0;
40371;PMS5003;28564;53.346;-6.554;2024-01-25T14:25:21;0;0;
40371;PMS5003;28564;53.346;-6.554;2024-01-25T14:27:49;0;0;
40371;PMS5003;28564;53.346;-6.554;2024-01-25T14:30:16;0;0;
40371;PMS5003;28564;53.346;-6.554;2024-01-25T14:32:43;0;0;
40371;PMS5003;28564;53.346;-6.554;2024-01-25T14:35:10;1;1;
40371;PMS5003;28564;53.346;-6.554;2024-01-25T14:37:37;0;0;
40371;PMS5003;28564;53.346;-6.554;2024-01-25T14:40:05;0;0;
40371;PMS5003;28564;53.346;-6.554;2024-01-25T14:42:33;0;0;
40371;PMS5003;28564;53.346;-6.554;2024-01-25T14:45:00;0;0;
40371;PMS5003;28564;53.346;-6.554;2024-01-25T14:47:27;2;1;
40371;PMS5003;28564;53.346;-6.554;2024-01-25T14:49:54;0;0;
40371;PMS5003;28564;53.346;-6.554;2024-01-25T14:52:22;7;3;
40371;PMS5003;28564;53.346;-6.554;2024-01-25T14:54:49;1;1;
40371;PMS5003;28564;53.346;-6.554;2024-01-25T14:57:17;1;1;
40371;PMS5003;28564;53.346;-6.554;2024-01-25T14:59:45;0;0;
40371;PMS5003;28564;53.346;-6.554;2024-01-25T15:02:13;0;0;
40371;PMS5003;28564;53.346;-6.554;2024-01-25T15:04:40;0;0;
40371;PMS5003;28564;53.346;-6.554;2024-01-25T15:07:07;0;0;
40371;PMS5003;28564;53.346;-6.554;2024-01-25T15:09:34;0;0;
40371;PMS5003;28564;53.346;-6.554;2024-01-25T15:12:02;0;0;
40371;PMS5003;28564;53.346;-6.554;2024-01-25T15:14:31;0;0;
40371;PMS5003;28564;53.346;-6.554;2024-01-25T15:16:58;0;0;
40371;PMS5003;28564;53.346;-6.554;2024-01-25T15:19:25;1;1;
40371;PMS5003;28564;53.346;-6.554;2024-01-25T15:21:52;3;1;
40371;PMS5003;28564;53.346;-6.554;2024-01-25T15:24:19;0;0;
40371;PMS5003;28564;53.346;-6.554;2024-01-25T15:26:46;0;0;
40371;PMS5003;28564;53.346;-6.554;2024-01-25T15:29:14;0;0;
40371;PMS5003;28564;53.346;-6.554;2024-01-25T15:31:40;0;0;
40371;PMS5003;28564;53.346;-6.554;2024-01-25T15:34:08;0;0;
40371;PMS5003;28564;53.346;-6.554;2024-01-25T15:36:35;3;3;
40371;PMS5003;28564;53.346;-6.554;2024-01-25T15:39:02;3;3;
40371;PMS5003;28564;53.346;-6.554;2024-01-25T15:41:30;4;4;
40371;PMS5003;28564;53.346;-6.554;2024-01-25T15:43:57;3;3;
40371;PMS5003;28564;53.346;-6.554;2024-01-25T15:46:24;5;4;
40371;PMS5003;28564;53.346;-6.554;2024-01-25T15:48:52;4;3;
40371;PMS5003;28564;53.346;-6.554;2024-01-25T15:51:19;4;4;
40371;PMS5003;28564;53.346;-6.554;2024-01-25T15:53:47;31;27;
40371;PMS5003;28564;53.346;-6.554;2024-01-25T15:56:14;10;8;
40371;PMS5003;28564;53.346;-6.554;2024-01-25T15:58:42;4;4;
40371;PMS5003;28564;53.346;-6.554;2024-01-25T16:01:11;4;4;
40371;PMS5003;28564;53.346;-6.554;2024-01-25T16:03:38;1;1;
40371;PMS5003;28564;53.346;-6.554;2024-01-25T16:06:05;2;2;
40371;PMS5003;28564;53.346;-6.554;2024-01-25T16:08:32;2;2;
40371;PMS5003;28564;53.346;-6.554;2024-01-25T16:10:59;4;4;
40371;PMS5003;28564;53.346;-6.554;2024-01-25T16:13:26;2;2;
40371;PMS5003;28564;53.346;-6.554;2024-01-25T16:15:54;1;1;
40371;PMS5003;28564;53.346;-6.554;2024-01-25T16:18:22;3;3;
40371;PMS5003;28564;53.346;-6.554;2024-01-25T16:20:49;2;2;
40371;PMS5003;28564;53.346;-6.554;2024-01-25T16:23:16;2;2;
40371;PMS5003;28564;53.346;-6.554;2024-01-25T16:25:43;6;3;
40371;PMS5003;28564;53.346;-6.554;2024-01-25T16:28:10;7;4;
40371;PMS5003;28564;53.346;-6.554;2024-01-25T16:30:37;2;2;
40371;PMS5003;28564;53.346;-6.554;2024-01-25T16:33:05;1;1;
40371;PMS5003;28564;53.346;-6.554;2024-01-25T16:35:32;5;3;
40371;PMS5003;28564;53.346;-6.554;2024-01-25T16:37:59;1;1;
40371;PMS5003;28564;53.346;-6.554;2024-01-25T16:40:27;6;4;